Portada
METAR-TAF:

METAR-TAF

Aeroports :

Space Coast Regional Airport

Titusville, Florida, Estats Units d'Amèrica

latitud: 28-31N, longitud: 080-48W, altitud: 11 m

Observació

L'informe es va fer fa 37 minuts, a les 11:47 UTC
Vent calma
Temperatura 7°C
Humitat 87%
Pressió 1027 hPa
Visibilitat: 11.3 km
Cel clar

METAR: KTIX 191147Z 00000KT 7SM CLR 07/05 A3032

Hora: 07:24 (12:24 UTC)

Pronòstic

L'informe es va fer fa 1 hora i 4 minuts, a les 11:20 UTC
Pronòstic vàlid del 19 a les 12 UTC al 20 a les 12 UTC
Vent 3 kt amb direcció variable
Visibilitat: 10 km
Cel clar
A partir de les 19 a les 1800 UTC
Vent 8 kt del Est/Nord-Est
Visibilitat: 10 km
Escasses núvols a una alçada de 4000 ft
A partir de les 19 a les 2300 UTC
Vent 2 kt amb direcció variable
Visibilitat: 10 km
Escasses núvols a una alçada de 25000 ft

TAF: KTIX 191120Z 1912/2012 VRB03KT P6SM SKC FM191800 06008KT P6SM FEW040 FM192300 VRB02KT P6SM FEW250

Observacions i pronòstics meteorològics de més de 4000 aeroports (METAR i TAF).

Les estacions disponibles són els punts grocs i vermells al mapa.

Posi el ratolí al punt desitjat per veure el nom de l'estació.

Feu clic per veure les observacions i els pronòstics meteorològics.

Per canviar el mapa: feu clic els botons verds amb una creu de color negre per apropar; al botó verd amb un guió per allunyar la imatge; o en les fletxes verdes per a mapes adjacents.


METAR-TAF: